createdAt,value
2022-09-28T04:48:50.726Z,160.68
2022-09-28T04:51:17.877Z,135.10
2022-09-28T04:53:44.871Z,213.75
2022-09-28T04:56:13.718Z,105.50
2022-09-28T04:58:41.782Z,98.90
2022-09-28T05:01:12.261Z,107.60
2022-09-28T05:03:40.158Z,96.63
2022-09-28T05:06:07.662Z,86.90
2022-09-28T05:08:35.792Z,100.50
2022-09-28T05:11:05.745Z,84.15
2022-09-28T05:13:36.018Z,84.05
2022-09-28T05:16:05.443Z,89.40
2022-09-28T05:18:32.994Z,78.90
2022-09-28T05:21:01.468Z,91.53
2022-09-28T05:23:28.905Z,83.30
2022-09-28T05:25:56.079Z,81.88
2022-09-28T05:28:26.329Z,84.38
2022-09-28T05:30:53.485Z,82.82
2022-09-28T05:33:20.919Z,66.85
2022-09-28T05:35:52.505Z,74.65
2022-09-28T05:38:21.003Z,71.15
2022-09-28T05:40:48.305Z,73.88
2022-09-28T05:43:15.491Z,73.72
2022-09-28T05:45:43.216Z,76.28
2022-09-28T05:48:10.384Z,69.72
2022-09-28T05:50:37.765Z,72.03
2022-09-28T05:53:08.375Z,69.30
2022-09-28T05:55:36.745Z,78.88
2022-09-28T05:58:06.535Z,72.57
2022-09-28T06:00:35.407Z,56.78
2022-09-28T06:03:08.638Z,60.15
2022-09-28T06:05:41.297Z,63.10
2022-09-28T06:08:13.112Z,63.78
2022-09-28T06:10:41.253Z,53.90
2022-09-28T06:13:08.739Z,171.82
2022-09-28T06:15:42.345Z,55.45
2022-09-28T06:18:17.125Z,66.40
2022-09-28T06:20:44.525Z,55.53
2022-09-28T06:23:13.178Z,62.65
2022-09-28T06:25:41.329Z,57.92
2022-09-28T06:28:14.128Z,57.42
2022-09-28T06:30:43.185Z,52.63
2022-09-28T06:33:12.964Z,51.28
2022-09-28T06:35:40.741Z,59.67
2022-09-28T06:38:08.667Z,49.55
2022-09-28T06:40:36.582Z,45.25
2022-09-28T06:43:10.626Z,46.58
2022-09-28T06:45:40.160Z,44.97
2022-09-28T06:48:07.939Z,48.60
2022-09-28T06:50:38.478Z,47.90
2022-09-28T06:53:07.374Z,51.65
2022-09-28T06:55:34.439Z,49.53
2022-09-28T06:58:09.098Z,51.67
2022-09-28T07:00:37.904Z,47.33
2022-09-28T07:03:12.279Z,47.70
2022-09-28T07:05:48.340Z,49.42
2022-09-28T07:08:16.118Z,50.85
2022-09-28T07:10:45.156Z,49.95
2022-09-28T07:13:38.396Z,42.42
2022-09-28T07:16:01.837Z,42.97
2022-09-28T07:18:30.148Z,50.05
2022-09-28T07:21:03.208Z,42.08
2022-09-28T07:23:30.807Z,37.97
2022-09-28T07:25:58.449Z,44.03
2022-09-28T07:28:26.247Z,37.25
2022-09-28T07:30:53.776Z,42.08
2022-09-28T07:33:20.798Z,36.72
2022-09-28T07:35:56.018Z,37.10
2022-09-28T07:38:23.431Z,36.35
2022-09-28T07:41:08.919Z,34.13
2022-09-28T07:43:35.997Z,32.90
2022-09-28T07:46:03.019Z,30.13
2022-09-28T07:48:38.263Z,30.58
2022-09-28T07:51:05.634Z,32.20
2022-09-28T07:53:33.036Z,32.70
2022-09-28T07:56:09.570Z,32.03
2022-09-28T07:58:38.546Z,33.90
2022-09-28T08:01:11.205Z,27.13
2022-09-28T08:03:38.953Z,30.90
2022-09-28T08:06:07.565Z,28.98
2022-09-28T08:08:35.330Z,30.25
2022-09-28T08:11:03.162Z,32.20
2022-09-28T08:13:31.923Z,35.03
2022-09-28T08:16:02.606Z,26.85
2022-09-28T08:18:31.401Z,27.02
2022-09-28T08:21:34.039Z,31.88
2022-09-28T08:24:01.441Z,26.40
2022-09-28T08:26:29.232Z,24.35
2022-09-28T08:28:57.833Z,28.63
2022-09-28T08:31:25.183Z,23.02
2022-09-28T08:33:54.381Z,27.25
2022-09-28T08:36:21.397Z,26.23
2022-09-28T08:38:48.425Z,25.48
2022-09-28T08:41:21.200Z,26.13
2022-09-28T08:44:01.066Z,23.38
2022-09-28T08:46:35.950Z,24.88
2022-09-28T08:49:24.902Z,24.35
2022-09-28T08:51:59.602Z,25.55
2022-09-28T08:54:39.357Z,23.48
2022-09-28T08:57:13.139Z,25.63
2022-09-28T08:59:51.607Z,24.13
2022-09-28T09:02:25.477Z,21.33
2022-09-28T09:04:54.050Z,20.27
2022-09-28T09:07:50.802Z,21.98
2022-09-28T09:10:46.041Z,21.75
2022-09-28T09:13:28.037Z,24.85
2022-09-28T09:16:02.664Z,23.65
2022-09-28T09:18:38.196Z,23.85
2022-09-28T09:21:15.763Z,23.52
2022-09-28T09:23:55.380Z,27.38
2022-09-28T09:26:40.301Z,25.00
2022-09-28T09:29:18.089Z,20.77
2022-09-28T09:32:21.037Z,23.00
2022-09-28T09:35:06.253Z,24.38
2022-09-28T09:37:58.452Z,22.83
2022-09-28T09:40:29.101Z,22.23
2022-09-28T09:43:18.987Z,22.58
2022-09-28T09:46:07.206Z,19.48
2022-09-28T09:48:46.498Z,18.42
2022-09-28T09:51:32.779Z,20.02
2022-09-28T09:54:03.932Z,16.95
2022-09-28T09:56:40.496Z,23.65
2022-09-28T09:59:13.274Z,19.17
2022-09-28T10:01:41.515Z,19.13
2022-09-28T10:04:19.674Z,16.65
2022-09-28T10:06:48.083Z,20.80
2022-09-28T10:09:28.247Z,17.58
2022-09-28T10:11:55.350Z,24.15
2022-09-28T10:14:24.195Z,17.33
2022-09-28T10:16:53.939Z,24.52
2022-09-28T10:19:29.322Z,21.20
2022-09-28T10:21:59.014Z,16.85
2022-09-28T10:24:31.962Z,21.35
2022-09-28T10:27:05.266Z,19.20
2022-09-28T10:29:41.463Z,21.30
2022-09-28T10:32:25.926Z,20.02
2022-09-28T10:35:11.075Z,19.90
2022-09-28T10:38:01.857Z,39.90
2022-09-28T10:40:37.649Z,28.38
2022-09-28T10:43:28.155Z,15.52
2022-09-28T10:46:03.300Z,18.98
2022-09-28T10:48:51.926Z,18.05
2022-09-28T10:51:19.265Z,15.77
2022-09-28T10:54:02.969Z,20.33
2022-09-28T10:56:37.155Z,14.93
2022-09-28T10:59:28.505Z,19.67
2022-09-28T11:02:03.219Z,17.42
2022-09-28T11:04:39.794Z,19.00
2022-09-28T11:07:20.808Z,24.33
2022-09-28T11:09:49.511Z,13.75
2022-09-28T11:12:23.837Z,19.10
2022-09-28T11:14:57.936Z,22.88
2022-09-28T11:17:38.729Z,15.18
2022-09-28T11:20:31.189Z,17.60
2022-09-28T11:23:17.891Z,11.77
2022-09-28T11:25:57.339Z,29.60
2022-09-28T11:28:29.773Z,16.85
2022-09-28T11:30:57.668Z,13.43
2022-09-28T11:33:30.367Z,18.50
2022-09-28T11:36:12.971Z,18.38
2022-09-28T11:38:49.776Z,21.00
2022-09-28T11:41:22.941Z,15.32
2022-09-28T11:44:03.800Z,15.80
2022-09-28T11:46:42.494Z,14.40
2022-09-28T11:49:27.452Z,14.65
2022-09-28T11:52:01.207Z,26.73
2022-09-28T11:54:34.911Z,19.55
2022-09-28T11:57:05.230Z,18.65
2022-09-28T11:59:37.903Z,15.88
2022-09-28T12:02:23.373Z,13.70
2022-09-28T12:04:58.136Z,14.05
2022-09-28T12:07:34.423Z,26.25
2022-09-28T12:10:17.311Z,17.55
2022-09-28T12:12:56.759Z,15.65
2022-09-28T12:15:47.177Z,19.52
2022-09-28T12:18:37.688Z,19.88
2022-09-28T12:21:28.440Z,17.45
2022-09-28T12:24:07.718Z,19.58
2022-09-28T12:26:39.184Z,17.73
2022-09-28T12:29:14.730Z,19.52
2022-09-28T12:32:03.900Z,21.83
2022-09-28T12:34:31.565Z,19.40
2022-09-28T12:37:07.684Z,19.15
2022-09-28T12:40:12.269Z,19.83
2022-09-28T12:42:45.337Z,23.83
2022-09-28T12:45:28.288Z,21.13
2022-09-28T12:47:57.895Z,19.58
2022-09-28T12:50:42.842Z,17.90
2022-09-28T12:53:41.719Z,22.50
2022-09-28T12:56:20.919Z,23.75
2022-09-28T12:59:16.411Z,22.80
2022-09-28T13:02:22.208Z,24.50
2022-09-28T13:05:01.704Z,22.63
2022-09-28T13:08:02.519Z,21.85
2022-09-28T13:11:05.558Z,27.17
2022-09-28T13:13:56.262Z,24.90
2022-09-28T13:16:37.527Z,24.27
2022-09-28T13:19:30.822Z,20.88
2022-09-28T13:22:02.653Z,23.13
2022-09-28T13:24:36.004Z,24.20
2022-09-28T13:27:10.276Z,23.33
2022-09-28T13:32:13.113Z,22.25
2022-09-28T13:34:40.227Z,23.30
2022-09-28T13:37:16.964Z,26.48
2022-09-28T13:39:43.979Z,18.50
2022-09-28T13:42:20.857Z,18.08
2022-09-28T13:45:21.121Z,20.45
2022-09-28T13:48:11.513Z,18.38
2022-09-28T13:50:53.912Z,19.45
2022-09-28T13:53:36.198Z,19.38
2022-09-28T13:56:38.100Z,15.63
2022-09-28T14:02:09.506Z,15.50
2022-09-28T14:04:55.230Z,9.57
2022-09-28T14:07:34.279Z,10.20
2022-09-28T14:10:25.928Z,10.90
2022-09-28T14:12:54.451Z,16.05
2022-09-28T14:15:30.696Z,12.30
2022-09-28T14:18:23.461Z,13.63
2022-09-28T14:21:02.953Z,11.88
2022-09-28T14:24:17.479Z,11.20
2022-09-28T14:27:24.391Z,13.50
2022-09-28T14:30:06.631Z,10.95
2022-09-28T14:32:37.449Z,11.18
2022-09-28T14:35:27.402Z,11.90
2022-09-28T14:38:18.853Z,13.75
2022-09-28T14:41:09.913Z,11.52
2022-09-28T14:43:38.198Z,13.90
2022-09-28T14:46:25.533Z,12.05
2022-09-28T14:48:54.942Z,13.60
2022-09-28T14:51:24.614Z,12.23
2022-09-28T14:53:52.582Z,11.20
2022-09-28T14:56:20.511Z,17.88
2022-09-28T14:58:54.876Z,13.02
2022-09-28T15:01:24.695Z,13.65
2022-09-28T15:04:00.242Z,14.05
2022-09-28T15:06:45.198Z,16.42
2022-09-28T15:09:39.484Z,13.60
2022-09-28T15:12:17.110Z,13.10
2022-09-28T15:15:01.703Z,13.90
2022-09-28T15:17:41.014Z,12.45
2022-09-28T15:20:32.221Z,15.52
2022-09-28T15:23:36.916Z,15.80
2022-09-28T15:26:08.606Z,15.98
2022-09-28T15:28:41.371Z,15.20
2022-09-28T15:31:21.496Z,16.50
2022-09-28T15:34:16.223Z,14.98
2022-09-28T15:36:48.062Z,18.15
2022-09-28T15:39:36.746Z,19.75
2022-09-28T15:42:07.715Z,18.15
2022-09-28T15:44:45.784Z,17.58
2022-09-28T15:47:28.571Z,23.25
2022-09-28T15:50:04.404Z,30.52
2022-09-28T15:52:46.228Z,18.35
2022-09-28T15:55:36.839Z,19.38
2022-09-28T15:58:20.593Z,19.60
2022-09-28T16:00:53.037Z,17.88
2022-09-28T16:03:29.312Z,20.58
2022-09-28T16:06:00.179Z,23.65
2022-09-28T16:08:44.297Z,18.80
2022-09-28T16:11:38.888Z,22.65
2022-09-28T16:14:22.716Z,25.23
2022-09-28T16:16:59.869Z,17.35
2022-09-28T16:19:37.818Z,17.55
2022-09-28T16:22:18.618Z,15.85
2022-09-28T16:24:55.878Z,20.25
2022-09-28T16:27:30.148Z,19.20
2022-09-28T16:30:14.146Z,20.88
2022-09-28T16:32:59.589Z,20.05
2022-09-28T16:35:35.893Z,21.92
2022-09-28T16:38:17.284Z,21.75
2022-09-28T16:40:52.867Z,20.13
2022-09-28T16:43:29.059Z,26.20
2022-09-28T16:45:58.798Z,25.65
2022-09-28T16:48:27.312Z,25.25
2022-09-28T16:50:55.631Z,23.70
2022-09-28T16:53:43.423Z,30.48
2022-09-28T16:56:12.193Z,26.13
2022-09-28T16:58:39.247Z,25.42
2022-09-28T17:01:10.741Z,25.05
2022-09-28T17:03:47.246Z,30.45
2022-09-28T17:06:15.560Z,28.30
2022-09-28T17:08:43.414Z,27.23
2022-09-28T17:11:23.719Z,30.55
2022-09-28T17:13:52.036Z,29.77
2022-09-28T17:16:42.944Z,29.45
2022-09-28T17:19:22.262Z,28.27
2022-09-28T17:21:50.574Z,31.60
2022-09-28T17:24:18.861Z,34.45
2022-09-28T17:26:51.301Z,33.67
2022-09-28T17:29:18.959Z,30.88
2022-09-28T17:31:47.433Z,36.05
2022-09-28T17:34:16.662Z,28.83
2022-09-28T17:36:44.896Z,26.65
2022-09-28T17:39:19.318Z,22.55
2022-09-28T17:41:46.380Z,19.95
2022-09-28T17:44:17.521Z,18.50
2022-09-28T17:46:49.069Z,21.02
2022-09-28T17:51:44.718Z,21.30
2022-09-28T17:54:13.848Z,21.33
2022-09-28T17:56:42.819Z,28.48
2022-09-28T17:59:14.936Z,22.55
2022-09-28T18:01:42.389Z,24.75
2022-09-28T18:04:23.017Z,23.08
2022-09-28T18:06:59.542Z,23.23
2022-09-28T18:09:26.862Z,22.17
2022-09-28T18:12:00.721Z,24.95
2022-09-28T18:14:28.586Z,25.13
2022-09-28T18:16:56.139Z,28.58
2022-09-28T18:19:23.492Z,28.10
2022-09-28T18:21:50.562Z,27.27
2022-09-28T18:24:18.053Z,26.90
2022-09-28T18:26:45.733Z,27.85
2022-09-28T18:29:12.724Z,24.77
2022-09-28T18:31:39.780Z,26.88
2022-09-28T18:34:06.921Z,27.45
2022-09-28T18:36:38.014Z,31.50
2022-09-28T18:39:05.515Z,43.28
2022-09-28T18:41:35.519Z,37.53
2022-09-28T18:44:02.889Z,46.05
2022-09-28T18:46:37.946Z,35.72
2022-09-28T18:49:05.671Z,43.70
2022-09-28T18:51:33.428Z,48.13
2022-09-28T18:54:07.143Z,46.22
2022-09-28T18:56:37.616Z,53.05
2022-09-28T18:59:11.261Z,71.60
2022-09-28T19:01:40.284Z,57.40
2022-09-28T19:04:09.854Z,50.33
2022-09-28T19:06:42.660Z,39.22
2022-09-28T19:09:10.614Z,36.72
2022-09-28T19:11:37.843Z,31.98
2022-09-28T19:14:05.957Z,39.90
2022-09-28T19:16:35.776Z,28.30
2022-09-28T19:19:03.817Z,32.97
2022-09-28T19:21:31.284Z,48.28
2022-09-28T19:24:02.695Z,31.08
2022-09-28T19:26:30.308Z,31.25
2022-09-28T19:28:58.476Z,28.70
2022-09-28T19:31:26.961Z,40.15
2022-09-28T19:33:54.110Z,47.58
2022-09-28T19:36:24.175Z,45.60
2022-09-28T19:38:56.112Z,40.03
2022-09-28T19:41:43.312Z,73.57
2022-09-28T19:44:19.395Z,48.50
2022-09-28T19:46:46.892Z,46.67
2022-09-28T19:49:19.891Z,42.45
2022-09-28T19:52:11.996Z,42.92
2022-09-28T19:54:37.568Z,38.25
2022-09-28T19:57:08.197Z,43.63
2022-09-28T19:59:37.326Z,55.50
2022-09-28T20:02:06.803Z,37.67
2022-09-28T20:04:34.131Z,41.45
2022-09-28T20:07:01.957Z,39.92
2022-09-28T20:09:29.551Z,31.83
2022-09-28T20:11:57.071Z,38.67
2022-09-28T20:14:25.916Z,31.13
2022-09-28T20:16:53.503Z,27.92
2022-09-28T20:19:21.997Z,61.72
2022-09-28T20:21:49.599Z,29.50
2022-09-28T20:24:17.359Z,37.80
2022-09-28T20:26:45.911Z,35.78
2022-09-28T20:29:13.689Z,36.55
2022-09-28T20:31:43.215Z,39.97
2022-09-28T20:34:12.241Z,33.67
2022-09-28T20:36:42.366Z,34.67
2022-09-28T20:39:10.557Z,40.90
2022-09-28T20:41:37.549Z,44.60
2022-09-28T20:44:06.478Z,36.25
2022-09-28T20:46:37.127Z,35.80
2022-09-28T20:49:05.452Z,30.95
2022-09-28T20:51:32.775Z,35.15
2022-09-28T20:53:59.783Z,35.72
2022-09-28T20:56:34.607Z,32.50
2022-09-28T20:59:01.647Z,34.88
2022-09-28T21:01:30.603Z,34.80
2022-09-28T21:04:02.778Z,42.97
2022-09-28T21:06:32.122Z,35.50
2022-09-28T21:08:59.371Z,38.90
2022-09-28T21:11:28.215Z,30.77
2022-09-28T21:13:59.956Z,40.53
2022-09-28T21:18:57.325Z,39.85
2022-09-28T21:21:25.609Z,41.63
2022-09-28T21:23:56.772Z,30.73
2022-09-28T21:26:29.004Z,34.45
2022-09-28T21:28:58.050Z,39.05
2022-09-28T21:31:29.057Z,35.10
2022-09-28T21:33:57.678Z,30.58
2022-09-28T21:36:25.638Z,38.40
2022-09-28T21:38:54.435Z,49.45
2022-09-28T21:41:21.914Z,47.03
2022-09-28T21:43:48.924Z,33.47
2022-09-28T21:46:16.548Z,37.75
2022-09-28T21:48:43.509Z,38.40
2022-09-28T21:51:14.161Z,38.30
2022-09-28T21:53:41.241Z,34.83
2022-09-28T21:56:10.559Z,41.75
2022-09-28T21:58:38.658Z,32.05
2022-09-28T22:01:05.572Z,30.73
2022-09-28T22:03:35.328Z,34.13
2022-09-28T22:06:03.708Z,28.35
2022-09-28T22:08:31.185Z,37.25
2022-09-28T22:11:02.669Z,26.67
2022-09-28T22:13:31.706Z,25.85
2022-09-28T22:15:59.466Z,33.40
2022-09-28T22:18:29.509Z,30.63
2022-09-28T22:21:10.993Z,28.58
2022-09-28T22:23:38.760Z,26.00
2022-09-28T22:26:12.669Z,29.77
2022-09-28T22:28:48.318Z,32.03
2022-09-28T22:31:16.951Z,24.70
2022-09-28T22:33:44.091Z,24.92
2022-09-28T22:36:11.417Z,27.63
2022-09-28T22:38:38.432Z,27.27
2022-09-28T22:41:05.685Z,28.50
2022-09-28T22:43:33.230Z,24.25
2022-09-28T22:46:08.665Z,27.25
2022-09-28T22:48:36.138Z,32.17
2022-09-28T22:51:05.293Z,26.92
2022-09-28T22:53:33.400Z,31.85
2022-09-28T22:56:01.623Z,29.90
2022-09-28T22:58:28.573Z,25.77
2022-09-28T23:00:57.083Z,26.27
2022-09-28T23:03:24.050Z,28.42
2022-09-28T23:05:57.100Z,23.27
2022-09-28T23:08:24.657Z,28.40
2022-09-28T23:10:52.205Z,25.65
2022-09-28T23:13:19.564Z,30.17
2022-09-28T23:16:01.623Z,27.35
2022-09-28T23:18:30.865Z,27.25
2022-09-28T23:21:05.667Z,22.58
2022-09-28T23:23:33.768Z,24.52
2022-09-28T23:26:09.338Z,24.90
2022-09-28T23:28:36.304Z,22.63
